Terminal Aerodrome Forecast
Issued by NWS

Home | Current Version | Previous Version | Text Only | Print | Product List | Glossary On
Versions: 1 2 3 4 5 6 7 8 9 10 11 12 13 14 15 16
000
FTUS45 KABQ 311128
TAFROW
TAF
KROW 311128Z 3112/0112 17006KT P6SM SCT060 BKN120
     FM311600 VRB06KT P6SM SCT080 SCT150
     FM311800 14013KT P6SM SCT090 SCT150
     FM312200 33014G24KT P6SM VCTS BKN080CB
     FM010200 02015G25KT P6SM VCSH BKN050 BKN090=

USA.gov is the U.S. government's official web portal to all federal, state and local government web resources and services.